• Join FlightAware (Why Join?)
  • Login
  • US Flag GB Flag 
10:23 EDT


 

Airport Tracker/Info


-or-


 

Live Flight TrackerFlight Track Log ✈ EJA987 ✈ 01-Jul-2013 ✈ KPHL - KSAF

Flight Track Log - Related Links

Times and Time Zones

All times are in EDT time to prevent confusion due to time zone crossing. See the EJA987 flight status page for this flight to view local times or setup timezone preferences in your user account.

Time Position Orientation Groundspeed Altitude Reporting Facility
EDT Latitude Longitude Course Direction KTS MPH feet Rate Location/Type
12:23 39.8833 -75.2167 278° West 183 211 800  Level Philadelphia TRACON
12:24 39.9167 -75.1167 66° East 257 296 5,600 3,300 Climbing Philadelphia TRACON
12:25 39.9667 -75.0500 46° Northeast 300 345 8,800 2,100 Climbing Philadelphia TRACON
12:27 40.0333 -75.1000 330° Northwest 331 381 9,900 600 Climbing Philadelphia TRACON
12:27 40.0833 -75.2167 299° West 389 448 10,000 180 Climbing Philadelphia TRACON
12:29 40.4394 -75.9374 278° West  Level FlightAware Approximate
12:29 40.1333 -75.3500 296° West 407 468 10,300  Level Philadelphia TRACON
12:30 40.2111 -75.5328 299° West 416 479 11,900 1,140 Climbing New York Center
12:31 40.2717 -75.6350 308° West 405 466 13,100 1,140 Climbing New York Center
12:32 40.3442 -75.7464 311° West 405 466 14,200 1,200 Climbing New York Center
12:33 40.4244 -75.8667 311° West 400 460 15,600 1,200 Climbing New York Center
12:34 40.4583 -76.0000 289° West 376 433 16,600 960 Climbing New York Center
12:35 40.4756 -76.1269 280° West 388 447 17,600 900 Climbing New York Center
12:36 40.4961 -76.2678 281° West 393 452 18,500 960 Climbing New York Center
12:37 40.5197 -76.4281 281° West 398 458 19,600 1,020 Climbing New York Center
12:38 40.5419 -76.5744 281° West 398 458 20,600 840 Climbing New York Center
12:39 40.5617 -76.7236 280° West 408 470 21,400 720 Climbing New York Center
12:40 40.5850 -76.8761 281° West 420 483 22,100 840 Climbing New York Center
12:41 40.6064 -77.0283 281° West 426 490 23,200 1,260 Climbing New York Center
12:43 40.6686 -77.2834 279° West  Level FlightAware Approximate
12:43 40.6439 -77.2972 279° West 426 490 25,900  Level New York Center
12:45 40.6972 -77.6744 281° West 396 456 29,300 1,140 Climbing Cleveland Center
12:47 40.7388 -77.8686 282° West  Level FlightAware Approximate
12:47 40.7381 -77.9853 282° West 433 498 31,100  Level Cleveland Center
12:48 40.7625 -78.1514 281° West 453 521 31,800 660 Climbing Cleveland Center
12:49 40.7847 -78.3206 280° West 466 536 32,500 720 Climbing Cleveland Center
12:50 40.8072 -78.5064 279° West 466 536 33,300 780 Climbing Cleveland Center
12:51 40.8311 -78.6842 280° West 481 554 34,100 840 Climbing Cleveland Center
12:54 40.8800 -79.0562 280° West  Level FlightAware Approximate
12:54 40.9011 -79.2178 280° West 487 560 36,800  Level Cleveland Center
12:55 40.9219 -79.3961 279° West 487 560 37,800 960 Climbing Cleveland Center
12:56 40.9444 -79.5661 280° West 482 555 38,800 720 Climbing Cleveland Center
12:58 40.9692 -79.7643 279° West  Level FlightAware Approximate
12:58 40.9844 -79.9092 279° West 482 555 40,000  Level Cleveland Center
12:59 41.0019 -80.0850 278° West 482 555 40,000  Level Cleveland Center
13:00 41.0236 -80.2611 279° West 482 555 40,000  Level Cleveland Center
13:01 41.0428 -80.4372 278° West 482 555 40,000  Level Cleveland Center
13:02 41.0636 -80.6133 279° West 482 555 40,000  Level Cleveland Center
13:03 41.0822 -80.7925 278° West 487 560 40,000  Level Cleveland Center
13:04 41.1025 -80.9689 279° West 487 560 40,000  Level Cleveland Center
13:06 41.1226 -81.1685 278° West  Level FlightAware Approximate
13:06 41.1361 -81.3275 278° West 487 560 40,000  Level Cleveland Center
13:07 41.1578 -81.5042 279° West 487 560 40,000  Level Cleveland Center
13:08 41.1772 -81.6839 278° West 487 560 40,000  Level Cleveland Center
13:09 41.1939 -81.8661 277° West 487 560 40,000  Level Cleveland Center
13:10 41.2106 -82.0406 277° West 487 560 40,000  Level Cleveland Center
13:11 41.2231 -82.2064 276° West 493 567 40,000  Level Cleveland Center
13:12 41.2411 -82.3864 278° West 493 567 40,000  Level Cleveland Center
13:13 41.2569 -82.5608 277° West 493 567 40,000  Level Cleveland Center
13:15 41.2881 -82.8767 278° West 441 507 40,000  Level Chicago Center
13:16 41.3031 -83.0583 276° West 493 567 40,000 180 Level Chicago Center
13:17 41.3183 -83.2386 276° West 493 567 40,400 600 Climbing Chicago Center
13:18 41.3353 -83.4150 277° West 483 556 41,300 960 Climbing Chicago Center
13:19 41.3525 -83.6236 276° West 476 548 42,500 780 Climbing Chicago Center
13:20 41.3661 -83.7944 276° West 466 536 43,000 240 Climbing Chicago Center
13:21 41.3800 -83.9678 276° West 473 544 43,000  Level Chicago Center
13:22 41.3942 -84.1456 276° West 482 555 43,000  Level Chicago Center
13:23 41.4075 -84.3231 276° West 483 556 43,000  Level Chicago Center
13:24 41.4214 -84.5036 276° West 489 563 43,000  Level Chicago Center
13:27 41.4506 -84.9028 276° West 492 566 43,000  Level Chicago Center
13:28 41.4631 -85.0856 275° West 494 568 43,000  Level Chicago Center
13:30 41.4853 -85.4625 275° West 502 578 43,000  Level Chicago Center
13:31 41.5000 -85.6497 276° West 496 571 43,000  Level Chicago Center
13:32 41.5117 -85.8356 275° West 500 575 43,000  Level Chicago Center
13:33 41.5239 -86.0192 275° West 499 574 43,000  Level Chicago Center
13:34 41.5281 -86.2394 272° West 496 571 43,000  Level Chicago Center
13:35 41.5306 -86.4217 271° West 493 567 43,000  Level Chicago Center
13:36 41.5336 -86.6053 271° West 497 572 43,000  Level Chicago Center
13:37 41.5358 -86.7939 271° West 496 571 43,000  Level Chicago Center
13:38 41.5383 -86.9772 271° West 500 575 43,000  Level Chicago Center
13:39 41.5400 -87.1589 271° West 496 571 43,000  Level Chicago Center
13:40 41.5417 -87.3739 271° West 489 563 43,000  Level Chicago Center
13:41 41.5433 -87.5542 271° West 489 563 43,000  Level Chicago Center
13:42 41.5447 -87.7347 271° West 492 566 43,000  Level Chicago Center
13:43 41.5453 -87.9147 270° West 496 571 43,000  Level Chicago Center
13:45 41.5433 -88.3097 270° West 504 580 43,000  Level Chicago Center
13:47 41.4481 -88.6469 249° West 494 568 43,000  Level Kansas City Center
13:48 41.3958 -88.8158 248° West 495 570 43,000  Level Kansas City Center
13:49 41.3336 -89.0206 248° West 497 572 43,000  Level Kansas City Center
13:50 41.2822 -89.1906 248° West 497 572 43,000  Level Kansas City Center
13:51 41.2306 -89.3592 248° West 500 575 43,000  Level Chicago Center
13:52 41.1775 -89.5297 248° West 501 577 43,000  Level Chicago Center
13:53 41.1469 -89.7075 257° West 502 578 43,000  Level Chicago Center
13:54 41.1233 -89.9264 262° West 504 580 43,000  Level Chicago Center
13:56 41.0811 -90.2958 261° West 507 583 43,000  Level Kansas City Center
13:58 41.0597 -90.4769 261° West 504 580 43,000  Level Chicago Center
13:59 41.0386 -90.6608 261° West 507 583 43,000  Level Chicago Center
14:00 41.0114 -90.8811 261° West 506 582 43,000  Level Chicago Center
14:02 40.9667 -91.2489 261° West 508 585 43,000  Level Chicago Center
14:03 40.9428 -91.4414 261° West 506 582 43,000  Level Chicago Center
14:04 40.9203 -91.6231 261° West 505 581 43,000  Level Chicago Center
14:05 40.8969 -91.8039 260° West 504 580 43,000  Level Chicago Center
14:06 40.8731 -91.9856 260° West 507 583 43,000  Level Chicago Center
14:07 40.8458 -92.2011 261° West 504 580 43,000  Level Chicago Center
14:08 40.8206 -92.3811 260° West 505 581 43,000  Level Chicago Center
14:09 40.7969 -92.5628 260° West 508 585 43,000  Level Chicago Center
14:10 40.7722 -92.7422 260° West 507 583 43,000  Level Chicago Center
14:11 40.7422 -92.9581 260° West 506 582 43,000  Level Chicago Center
14:12 40.7169 -93.1383 260° West 508 585 43,000  Level Chicago Center
14:14 40.6608 -93.5372 260° West 509 586 43,000  Level Minneapolis Center
14:15 40.6333 -93.7189 259° West 512 589 43,000  Level Minneapolis Center
14:17 40.5775 -94.0789 259° West 511 588 43,000  Level Kansas City Center
14:18 40.5478 -94.2583 258° West 509 586 43,000  Level Kansas City Center
14:19 40.5136 -94.4581 257° West 513 590 43,000  Level Kansas City Center
14:20 40.4761 -94.6694 257° West 512 589 43,000  Level Minneapolis Center
14:21 40.4433 -94.8542 257° West 516 594 43,000  Level Minneapolis Center
14:23 40.4128 -95.0369 258° West 514 592 43,000  Level Minneapolis Center
14:24 40.3747 -95.2542 257° West 509 586 43,000  Level Minneapolis Center
14:25 40.3414 -95.4364 257° West 511 588 43,000  Level Minneapolis Center
14:26 40.3156 -95.5819 257° West 511 588 43,000  Level Minneapolis Center
14:27 40.2764 -95.7997 257° West 510 587 43,000  Level Minneapolis Center
14:28 40.2419 -95.9806 256° West 510 587 43,000  Level Minneapolis Center
14:29 40.2086 -96.1617 257° West 511 588 43,000  Level Minneapolis Center
14:30 40.1467 -96.3328 245° Southwest 516 594 43,000  Level Minneapolis Center
14:31 40.0622 -96.5344 241° Southwest 524 603 43,000  Level Minneapolis Center
14:33 39.9358 -96.8303 241° Southwest 526 605 43,000  Level Kansas City Center
14:34 39.8489 -97.0344 241° Southwest 527 606 43,000  Level Minneapolis Center
14:35 39.7931 -97.1639 241° Southwest 527 606 43,000  Level Kansas City Center
14:36 39.7222 -97.3286 241° Southwest 523 602 43,000  Level Kansas City Center
14:38 39.5781 -97.6583 241° Southwest 525 604 43,000  Level Kansas City Center
14:39 39.4897 -97.8569 240° Southwest 527 606 43,000  Level Kansas City Center
14:40 39.4186 -98.0133 240° Southwest 528 608 43,000  Level Kansas City Center
14:41 39.3483 -98.1708 240° Southwest 527 606 43,000  Level Kansas City Center
14:42 39.2706 -98.3514 241° Southwest 526 605 43,000  Level Kansas City Center
14:43 39.1933 -98.5189 239° Southwest 526 605 43,000  Level Kansas City Center
14:44 39.1211 -98.6803 240° Southwest 524 603 43,000  Level Kansas City Center
14:45 39.0472 -98.8403 239° Southwest 522 601 43,000  Level Kansas City Center
14:46 38.9742 -99.0022 240° Southwest 525 604 43,000  Level Kansas City Center
14:47 38.9006 -99.1625 239° Southwest 524 603 43,000  Level Kansas City Center
14:48 38.8036 -99.3494 236° Southwest 526 605 43,000  Level Kansas City Center
14:49 38.7100 -99.4964 231° Southwest 531 611 43,000  Level Kansas City Center
14:50 38.6147 -99.6472 231° Southwest 532 612 43,000  Level Kansas City Center
14:51 38.5244 -99.7881 231° Southwest 534 615 43,000  Level Kansas City Center
14:52 38.4194 -99.9522 231° Southwest 535 616 43,000  Level Kansas City Center
14:53 38.3303 -100.0925 231° Southwest 534 615 43,000  Level Kansas City Center
14:54 38.2239 -100.2550 230° Southwest 535 616 43,000  Level Kansas City Center
14:55 38.1342 -100.3964 231° Southwest 537 618 43,000  Level Kansas City Center
14:56 38.0283 -100.5586 230° Southwest 535 616 43,000  Level Kansas City Center
14:57 37.9392 -100.6964 231° Southwest 532 612 43,000  Level Kansas City Center
14:58 37.8708 -100.8778 245° Southwest 520 598 43,000  Level Kansas City Center
14:59 37.8183 -101.0367 247° West 520 598 43,000  Level Kansas City Center
15:00 37.7578 -101.2222 248° West 519 597 43,000  Level Kansas City Center
15:01 37.7053 -101.3800 247° West 515 593 43,000  Level Kansas City Center
15:02 37.6450 -101.5681 248° West 519 597 43,000  Level Kansas City Center
15:04 37.5914 -101.7275 247° West 517 595 43,000  Level Kansas City Center
15:05 37.5294 -101.9144 247° West 518 596 43,000  Level Kansas City Center
15:06 37.4758 -102.0736 247° West 518 596 43,000  Level Kansas City Center
15:07 37.4131 -102.2586 247° West 516 594 43,000  Level Kansas City Center
15:08 37.3597 -102.4172 247° West 516 594 43,000  Level Kansas City Center
15:08 37.3081 -102.5692 247° West 520 598 43,000  Level Albuquerque Center
15:10 37.1994 -102.8881 247° West 520 598 43,000  Level Albuquerque Center
15:12 37.1353 -103.0731 247° West 518 596 43,000  Level Albuquerque Center
15:13 37.0797 -103.2314 246° West 517 595 43,000  Level Albuquerque Center
15:14 37.0164 -103.4131 246° West 509 586 43,000  Level Albuquerque Center
15:15 36.9603 -103.5703 246° West 513 590 43,000  Level Albuquerque Center
15:17 36.8406 -103.9089 246° West 510 587 43,000  Level Albuquerque Center
15:18 36.7844 -104.0644 246° West 511 588 43,000  Level Albuquerque Center
15:19 36.7194 -104.2464 246° West 511 588 43,000  Level Albuquerque Center
15:20 36.6594 -104.4125 246° West 511 588 43,000  Level Albuquerque Center
15:21 36.5994 -104.5744 245° Southwest 511 588 43,000  Level Albuquerque Center
15:22 36.5403 -104.7394 246° West 517 595 43,000 -180 Level Albuquerque Center
15:23 36.4872 -104.8975 247° West 501 577 42,700 -480 Descending Albuquerque Center
15:24 36.4372 -105.0519 248° West 486 559 42,100 -1,080 Descending Albuquerque Center
15:25 36.3911 -105.2164 251° West 496 571 40,600 -2,460 Descending Albuquerque Center
15:26 36.3467 -105.3808 251° West 500 575 37,100 -3,600 Descending Albuquerque Center
15:27 36.2814 -105.5317 242° Southwest 493 567 33,200 -4,200 Descending Albuquerque Center
15:28 36.1672 -105.6731 225° Southwest 506 582 28,500 -6,060 Descending Albuquerque Center
15:29 36.0500 -105.7622 212° Southwest 499 574 20,800 -5,760 Descending Albuquerque Center
15:30 35.9450 -105.8394 211° Southwest 454 522 16,600 -3,420 Descending Albuquerque Center
15:31 35.8589 -105.9036 211° Southwest 387 445 13,800 -1,980 Descending Albuquerque Center
15:32 35.7803 -105.9536 207° Southwest 363 418 12,600 -1,200 Descending Albuquerque Center
15:34 35.6196 -106.0804 219° Southwest  Level FlightAware Approximate
15:41 35.6167 -106.0833 219° Southwest  Level FlightAware Approximate
15:42 35.6171 -106.0894 219° Southwest  Level Estimated
15:43 35.6167 -106.0833 219° Southwest  Level FlightAware Approximate
15:44 35.6171 -106.0894 219° Southwest  Level Estimated
15:45 35.6167 -106.0833 219° Southwest  Level FlightAware Approximate
15:46 35.6171 -106.0894 219° Southwest  Level Estimated
15:47 35.6167 -106.0833 219° Southwest  Level FlightAware Approximate
15:48 35.6171 -106.0894 219° Southwest  Level Estimated
15:49 35.6167 -106.0833 219° Southwest  Level FlightAware Approximate
15:50 35.6171 -106.0894 219° Southwest  Level Estimated
15:51 35.6167 -106.0833 219° Southwest  Level FlightAware Approximate